createdAt,value
2019-02-16T00:00:35.209Z,98773.90
2019-02-16T00:03:03.554Z,98773.36
2019-02-16T00:05:31.731Z,98769.33
2019-02-16T00:07:59.898Z,98775.69
2019-02-16T00:10:28.124Z,98763.88
2019-02-16T00:12:56.312Z,98766.56
2019-02-16T00:15:24.468Z,98768.48
2019-02-16T00:17:52.732Z,98767.46
2019-02-16T00:20:20.898Z,98760.77
2019-02-16T00:22:49.103Z,98757.77
2019-02-16T00:25:17.240Z,98757.23
2019-02-16T00:27:45.432Z,98761.27
2019-02-16T00:30:13.660Z,98763.75
2019-02-16T00:32:41.829Z,98755.12
2019-02-16T00:35:09.994Z,98769.05
2019-02-16T00:37:38.208Z,98757.52
2019-02-16T00:40:06.528Z,98758.16
2019-02-16T00:42:34.713Z,98757.02
2019-02-16T00:45:02.920Z,98755.44
2019-02-16T00:47:31.111Z,98749.98
2019-02-16T00:49:59.303Z,98739.76
2019-02-16T00:52:27.476Z,98740.86
2019-02-16T00:54:55.694Z,98736.30
2019-02-16T00:57:23.872Z,98734.45
2019-02-16T00:59:52.078Z,98731.48
2019-02-16T01:02:20.316Z,98727.49
2019-02-16T01:04:48.470Z,98726.40
2019-02-16T01:07:16.651Z,98727.73
2019-02-16T01:09:44.834Z,98727.25
2019-02-16T01:12:13.020Z,98723.46
2019-02-16T01:14:41.210Z,98721.91
2019-02-16T01:17:09.392Z,98718.08
2019-02-16T01:19:37.571Z,98718.91
2019-02-16T01:22:05.728Z,98719.91
2019-02-16T01:24:33.904Z,98718.91
2019-02-16T01:27:02.059Z,98715.15
2019-02-16T01:29:30.245Z,98719.52
2019-02-16T01:31:58.521Z,98722.37
2019-02-16T01:34:26.730Z,98717.63
2019-02-16T01:36:54.892Z,98717.88
2019-02-16T01:39:23.075Z,98715.72
2019-02-16T01:41:51.250Z,98716.02
2019-02-16T01:44:19.421Z,98710.30
2019-02-16T01:46:47.577Z,98717.27
2019-02-16T01:49:15.808Z,98709.45
2019-02-16T01:51:43.997Z,98709.73
2019-02-16T01:54:12.203Z,98706.31
2019-02-16T01:56:40.374Z,98702.48
2019-02-16T01:59:08.529Z,98700.66
2019-02-16T02:01:36.711Z,98701.47
2019-02-16T02:04:04.882Z,98702.56
2019-02-16T02:06:33.240Z,98700.32
2019-02-16T02:09:01.423Z,98695.23
2019-02-16T02:11:29.604Z,98694.70
2019-02-16T02:13:57.790Z,98690.14
2019-02-16T02:16:26.172Z,98691.52
2019-02-16T02:18:54.403Z,98689.05
2019-02-16T02:21:22.581Z,98686.92
2019-02-16T02:23:50.764Z,98687.45
2019-02-16T02:26:18.950Z,98688.55
2019-02-16T02:28:47.151Z,98682.02
2019-02-16T02:31:15.384Z,98677.13
2019-02-16T02:33:43.564Z,98675.75
2019-02-16T02:36:11.748Z,98665.66
2019-02-16T02:38:40.009Z,98672.13
2019-02-16T02:41:08.265Z,98670.89
2019-02-16T02:43:36.467Z,98672.13
2019-02-16T02:46:04.865Z,98663.79
2019-02-16T02:48:33.020Z,98669.64
2019-02-16T02:51:01.216Z,98667.97
2019-02-16T02:53:31.566Z,98669.60
2019-02-16T02:55:59.258Z,98672.25
2019-02-16T02:58:27.443Z,98666.34
2019-02-16T03:00:55.658Z,98669.60
2019-02-16T03:03:23.881Z,98666.91
2019-02-16T03:05:52.084Z,98666.58
2019-02-16T03:08:20.465Z,98673.30
2019-02-16T03:10:48.633Z,98672.44
2019-02-16T03:13:16.805Z,98671.19
2019-02-16T03:15:45.034Z,98671.19
2019-02-16T03:18:13.193Z,98680.12
2019-02-16T03:20:41.459Z,98674.41
2019-02-16T03:23:16.623Z,98671.67
2019-02-16T03:25:52.722Z,98676.23
2019-02-16T03:28:26.393Z,98676.75
2019-02-16T03:31:26.032Z,98683.42
2019-02-16T03:34:00.124Z,98675.13
2019-02-16T03:36:47.438Z,98679.73
2019-02-16T03:39:20.174Z,98678.92
2019-02-16T03:41:48.420Z,98685.11
2019-02-16T03:44:16.657Z,98688.56
2019-02-16T03:46:44.812Z,98691.02
2019-02-16T03:49:13.091Z,98693.61
2019-02-16T03:51:41.370Z,98696.34
2019-02-16T03:54:09.523Z,98697.41
2019-02-16T03:56:37.701Z,98700.66
2019-02-16T03:59:05.921Z,98700.62
2019-02-16T04:01:34.134Z,98705.71
2019-02-16T04:04:02.279Z,98702.30
2019-02-16T04:06:30.520Z,98705.86
2019-02-16T04:08:58.684Z,98702.83
2019-02-16T04:11:26.905Z,98705.19
2019-02-16T04:13:55.079Z,98702.55
2019-02-16T04:16:23.253Z,98702.54
2019-02-16T04:18:51.481Z,98708.69
2019-02-16T04:21:19.693Z,98715.32
2019-02-16T04:23:48.097Z,98721.84
2019-02-16T04:26:16.271Z,98718.06
2019-02-16T04:28:44.421Z,98720.41
2019-02-16T04:31:12.579Z,98717.48
2019-02-16T04:33:40.786Z,98716.95
2019-02-16T04:36:08.968Z,98710.61
2019-02-16T04:38:37.143Z,98710.48
2019-02-16T04:41:05.348Z,98714.70
2019-02-16T04:43:33.615Z,98716.70
2019-02-16T04:46:01.781Z,98716.43
2019-02-16T04:48:29.962Z,98719.45
2019-02-16T04:50:58.309Z,98714.60
2019-02-16T04:53:26.506Z,98719.11
2019-02-16T04:55:54.665Z,98705.71
2019-02-16T04:58:22.818Z,98700.05
2019-02-16T05:00:51.026Z,98701.64
2019-02-16T05:03:19.206Z,98704.81
2019-02-16T05:05:47.346Z,98704.31
2019-02-16T05:08:15.598Z,98703.50
2019-02-16T05:10:43.867Z,98702.45
2019-02-16T05:13:12.015Z,98707.48
2019-02-16T05:15:40.198Z,98705.85
2019-02-16T05:18:08.371Z,98702.45
2019-02-16T05:20:36.526Z,98703.66
2019-02-16T05:23:04.718Z,98701.30
2019-02-16T05:28:20.033Z,98696.83
2019-02-16T05:30:48.305Z,98699.14
2019-02-16T05:33:16.499Z,98701.25
2019-02-16T05:35:44.650Z,98704.51
2019-02-16T05:38:12.853Z,98687.33
2019-02-16T05:40:41.048Z,98688.37
2019-02-16T05:43:09.225Z,98696.16
2019-02-16T05:45:37.395Z,98698.03
2019-02-16T05:48:05.623Z,98696.72
2019-02-16T05:50:33.946Z,98697.30
2019-02-16T05:53:02.244Z,98695.91
2019-02-16T05:55:30.559Z,98700.47
2019-02-16T05:57:58.839Z,98701.34
2019-02-16T06:00:29.583Z,98704.81
2019-02-16T06:02:57.801Z,98705.62
2019-02-16T06:05:44.995Z,98708.55
2019-02-16T06:08:13.197Z,98707.00
2019-02-16T06:10:41.421Z,98707.50
2019-02-16T06:13:09.640Z,98712.87
2019-02-16T06:15:37.859Z,98714.99
2019-02-16T06:18:06.225Z,98722.05
2019-02-16T06:20:34.474Z,98720.41
2019-02-16T06:23:04.593Z,98730.65
2019-02-16T06:25:32.609Z,98735.78
2019-02-16T06:28:00.907Z,98730.45
2019-02-16T06:30:29.099Z,98743.85
2019-02-16T06:36:03.418Z,98751.20
2019-02-16T06:38:31.698Z,98762.72
2019-02-16T06:41:18.811Z,98759.66
2019-02-16T06:43:47.045Z,98760.48
2019-02-16T06:46:15.339Z,98763.69
2019-02-16T06:49:02.831Z,98760.77
2019-02-16T06:51:31.056Z,98771.28
2019-02-16T06:53:59.391Z,98777.88
2019-02-16T06:56:34.897Z,98779.83
2019-02-16T06:59:03.169Z,98779.06
2019-02-16T07:01:33.155Z,98784.56
2019-02-16T07:04:01.362Z,98785.22
2019-02-16T07:06:29.570Z,98781.75
2019-02-16T07:08:57.769Z,98786.84
2019-02-16T07:11:26.027Z,98789.98
2019-02-16T07:14:13.193Z,98791.86
2019-02-16T07:17:00.402Z,98794.26
2019-02-16T07:19:31.734Z,98796.70
2019-02-16T07:22:00.151Z,98797.23
2019-02-16T07:24:28.425Z,98798.54
2019-02-16T07:27:15.522Z,98800.22
2019-02-16T07:29:43.833Z,98809.22
2019-02-16T07:32:12.105Z,98810.98
2019-02-16T07:34:40.299Z,98813.71
2019-02-16T07:37:08.546Z,98810.73
2019-02-16T07:39:36.853Z,98809.43
2019-02-16T07:42:23.980Z,98812.45
2019-02-16T07:48:05.527Z,98804.58
2019-02-16T07:50:52.819Z,98810.78
2019-02-16T07:53:40.119Z,98812.48
2019-02-16T07:56:14.303Z,98799.70
2019-02-16T07:59:01.606Z,98806.19
2019-02-16T08:01:48.959Z,98809.84
2019-02-16T08:04:36.279Z,98810.28
2019-02-16T08:07:23.696Z,98806.67
2019-02-16T08:10:11.047Z,98799.98
2019-02-16T08:12:58.425Z,98798.14
2019-02-16T08:15:45.456Z,98790.89
2019-02-16T08:18:32.509Z,98791.78
2019-02-16T08:21:19.553Z,98792.23
2019-02-16T08:24:00.128Z,98790.77
2019-02-16T08:26:47.182Z,98800.66
2019-02-16T08:29:34.277Z,98789.26
2019-02-16T08:32:11.857Z,98792.76
2019-02-16T08:34:58.930Z,98789.70
2019-02-16T08:37:46.001Z,98791.28
2019-02-16T08:40:33.126Z,98787.45
2019-02-16T08:43:39.285Z,98790.10
2019-02-16T08:49:09.333Z,98786.02
2019-02-16T08:52:15.474Z,98782.17
2019-02-16T08:55:02.572Z,98777.59
2019-02-16T08:57:49.640Z,98772.13
2019-02-16T09:00:36.720Z,98767.52
2019-02-16T09:03:23.790Z,98766.17
2019-02-16T09:06:29.930Z,98765.59
2019-02-16T09:12:22.614Z,98770.20
2019-02-16T09:15:09.658Z,98770.06
2019-02-16T09:17:56.779Z,98770.34
2019-02-16T09:20:33.925Z,98761.45
2019-02-16T09:23:20.983Z,98760.97
2019-02-16T09:26:08.025Z,98759.28
2019-02-16T09:28:55.095Z,98756.11
2019-02-16T09:31:35.370Z,98751.50
2019-02-16T09:34:22.451Z,98762.27
2019-02-16T09:37:09.507Z,98761.16
2019-02-16T09:39:56.598Z,98763.03
2019-02-16T09:42:43.640Z,98763.52
2019-02-16T09:45:30.724Z,98758.98
2019-02-16T09:48:17.763Z,98765.05
2019-02-16T09:51:04.876Z,98763.46
2019-02-16T09:53:51.954Z,98765.86
2019-02-16T09:56:39.009Z,98767.20
2019-02-16T09:59:26.061Z,98772.88
2019-02-16T10:02:13.175Z,98770.44
2019-02-16T10:05:00.237Z,98769.29
2019-02-16T10:07:47.311Z,98771.70
2019-02-16T10:10:34.414Z,98773.09
2019-02-16T10:13:11.943Z,98779.44
2019-02-16T10:16:11.427Z,98779.44
2019-02-16T10:18:53.474Z,98778.38
2019-02-16T10:21:39.338Z,98774.53
2019-02-16T10:24:25.047Z,98767.20
2019-02-16T10:27:10.722Z,98765.87
2019-02-16T10:29:49.443Z,98767.73
2019-02-16T10:32:39.341Z,98771.14
2019-02-16T10:35:25.332Z,98760.71
2019-02-16T10:38:12.440Z,98760.71
2019-02-16T10:40:54.030Z,98757.66
2019-02-16T10:43:53.660Z,98752.29
2019-02-16T10:46:55.865Z,98753.93
2019-02-16T10:49:55.163Z,98750.63
2019-02-16T10:52:45.034Z,98744.67
2019-02-16T10:55:24.909Z,98740.44
2019-02-16T10:58:02.913Z,98732.23
2019-02-16T11:00:53.077Z,98730.13
2019-02-16T11:03:55.522Z,98730.20
2019-02-16T11:06:34.982Z,98726.33
2019-02-16T11:09:18.927Z,98726.68
2019-02-16T11:12:21.210Z,98726.98
2019-02-16T11:15:01.148Z,98730.38
2019-02-16T11:17:42.263Z,98731.38
2019-02-16T11:20:28.358Z,98726.09
2019-02-16T11:23:24.478Z,98724.17
2019-02-16T11:26:07.136Z,98715.45
2019-02-16T11:28:54.229Z,98715.21
2019-02-16T11:31:29.630Z,98708.06
2019-02-16T11:34:04.946Z,98715.16
2019-02-16T11:36:49.081Z,98713.33
2019-02-16T11:39:24.622Z,98716.54
2019-02-16T11:42:03.902Z,98710.92
2019-02-16T11:44:50.377Z,98704.78
2019-02-16T11:47:30.057Z,98703.44
2019-02-16T11:50:06.786Z,98703.67
2019-02-16T11:52:50.031Z,98699.16
2019-02-16T11:55:25.964Z,98700.73
2019-02-16T11:58:11.805Z,98694.52
2019-02-16T12:00:57.230Z,98693.19
2019-02-16T12:03:30.761Z,98686.44
2019-02-16T12:06:09.470Z,98682.64
2019-02-16T12:08:48.188Z,98677.84
2019-02-16T12:11:36.734Z,98669.53
2019-02-16T12:14:23.825Z,98669.59
2019-02-16T12:17:06.161Z,98666.06
2019-02-16T12:19:49.693Z,98668.00
2019-02-16T12:22:54.865Z,98666.55
2019-02-16T12:25:40.955Z,98663.24
2019-02-16T12:28:23.861Z,98657.23
2019-02-16T12:31:19.972Z,98651.86
2019-02-16T12:34:10.223Z,98647.98
2019-02-16T12:36:57.305Z,98646.64
2019-02-16T12:39:56.476Z,98634.49
2019-02-16T12:42:52.821Z,98634.73
2019-02-16T12:45:39.938Z,98634.20
2019-02-16T12:48:25.869Z,98624.47
2019-02-16T12:51:25.013Z,98622.61
2019-02-16T12:54:11.033Z,98617.01
2019-02-16T12:56:52.587Z,98612.78
2019-02-16T12:59:38.726Z,98606.58
2019-02-16T13:02:28.922Z,98608.92
2019-02-16T13:05:09.873Z,98601.00
2019-02-16T13:07:49.531Z,98598.23
2019-02-16T13:10:35.474Z,98595.00
2019-02-16T13:13:21.406Z,98589.61
2019-02-16T13:16:07.294Z,98586.86
2019-02-16T13:18:53.113Z,98585.27
2019-02-16T13:21:49.098Z,98587.09
2019-02-16T13:24:29.281Z,98594.11
2019-02-16T13:27:31.818Z,98582.97
2019-02-16T13:30:06.702Z,98587.70
2019-02-16T13:32:53.882Z,98585.52
2019-02-16T13:35:31.728Z,98578.92
2019-02-16T13:38:27.682Z,98578.27
2019-02-16T13:41:12.089Z,98576.17
2019-02-16T13:44:05.424Z,98575.42
2019-02-16T13:47:01.565Z,98564.59
2019-02-16T13:49:46.449Z,98564.26
2019-02-16T13:52:45.788Z,98557.55
2019-02-16T13:55:33.736Z,98549.44
2019-02-16T13:58:11.165Z,98552.45
2019-02-16T14:01:01.259Z,98552.67
2019-02-16T14:03:57.210Z,98546.83
2019-02-16T14:06:53.387Z,98544.82
2019-02-16T14:09:28.543Z,98541.65
2019-02-16T14:12:21.920Z,98544.94
2019-02-16T14:15:09.049Z,98546.98
2019-02-16T14:17:45.080Z,98546.77
2019-02-16T14:20:13.236Z,98546.83
2019-02-16T14:22:41.414Z,98541.65
2019-02-16T14:25:12.860Z,98539.05
2019-02-16T14:27:41.056Z,98537.61
2019-02-16T14:30:09.980Z,98537.39
2019-02-16T14:32:38.145Z,98539.80
2019-02-16T14:35:06.553Z,98530.87
2019-02-16T14:37:43.298Z,98532.01
2019-02-16T14:40:11.489Z,98522.70
2019-02-16T14:42:39.750Z,98524.52
2019-02-16T14:45:08.783Z,98530.91
2019-02-16T14:47:37.090Z,98520.42
2019-02-16T14:50:05.414Z,98511.56
2019-02-16T14:52:33.646Z,98512.64
2019-02-16T14:55:12.674Z,98510.60
2019-02-16T14:57:42.015Z,98512.55
2019-02-16T15:00:10.482Z,98510.88
2019-02-16T15:02:38.748Z,98510.06
2019-02-16T15:05:07.471Z,98512.52
2019-02-16T15:07:35.653Z,98510.00
2019-02-16T15:10:03.966Z,98502.73
2019-02-16T15:12:35.494Z,98502.91
2019-02-16T15:15:03.865Z,98502.67
2019-02-16T15:17:32.104Z,98499.73
2019-02-16T15:20:00.377Z,98494.14
2019-02-16T15:22:28.520Z,98497.34
2019-02-16T15:24:56.696Z,98498.23
2019-02-16T15:27:24.892Z,98500.33
2019-02-16T15:29:53.069Z,98495.78
2019-02-16T15:32:21.225Z,98499.08
2019-02-16T15:34:49.389Z,98495.55
2019-02-16T15:37:17.565Z,98504.44
2019-02-16T15:39:45.717Z,98502.28
2019-02-16T15:42:13.962Z,98493.95
2019-02-16T15:44:42.093Z,98496.38
2019-02-16T15:47:10.267Z,98498.78
2019-02-16T15:49:38.444Z,98491.50
2019-02-16T15:52:06.634Z,98490.22
2019-02-16T15:54:34.805Z,98481.63
2019-02-16T15:57:02.950Z,98487.25
2019-02-16T15:59:35.262Z,98485.73
2019-02-16T16:02:01.124Z,98492.40
2019-02-16T16:04:29.360Z,98489.41
2019-02-16T16:06:57.526Z,98488.87
2019-02-16T16:09:43.623Z,98490.52
2019-02-16T16:12:36.554Z,98490.01
2019-02-16T16:15:09.897Z,98492.70
2019-02-16T16:18:00.278Z,98492.55
2019-02-16T16:20:36.662Z,98493.39
2019-02-16T16:23:23.067Z,98492.85
2019-02-16T16:26:01.713Z,98497.19
2019-02-16T16:28:37.709Z,98492.79
2019-02-16T16:31:30.693Z,98497.13
2019-02-16T16:34:24.003Z,98494.55
2019-02-16T16:37:11.385Z,98491.86
2019-02-16T16:40:10.803Z,98493.98
2019-02-16T16:43:06.812Z,98490.22
2019-02-16T16:45:53.736Z,98486.17
2019-02-16T16:48:49.957Z,98492.64
2019-02-16T16:51:35.478Z,98496.66
2019-02-16T16:54:28.739Z,98491.86
2019-02-16T16:57:15.843Z,98497.84
2019-02-16T17:00:07.031Z,98503.53
2019-02-16T17:02:54.149Z,98508.20
2019-02-16T17:05:47.147Z,98500.56
2019-02-16T17:08:46.407Z,98508.92
2019-02-16T17:11:24.475Z,98514.00
2019-02-16T17:14:00.412Z,98522.11
2019-02-16T17:16:43.156Z,98525.67
2019-02-16T17:19:22.508Z,98528.36
2019-02-16T17:22:07.060Z,98526.96
2019-02-16T17:24:44.361Z,98526.16
2019-02-16T17:27:28.762Z,98531.54
2019-02-16T17:30:06.404Z,98530.77
2019-02-16T17:32:41.880Z,98529.77
2019-02-16T17:35:24.934Z,98531.36
2019-02-16T17:38:24.309Z,98536.53
2019-02-16T17:41:20.621Z,98538.17
2019-02-16T17:44:07.747Z,98540.03
2019-02-16T17:46:55.791Z,98538.14
2019-02-16T17:49:55.316Z,98539.30
2019-02-16T17:52:52.285Z,98535.28
2019-02-16T17:55:38.286Z,98542.02
2019-02-16T17:58:24.077Z,98538.57
2019-02-16T18:01:11.965Z,98543.77
2019-02-16T18:04:15.450Z,98541.91
2019-02-16T18:07:01.377Z,98535.00
2019-02-16T18:09:35.976Z,98533.08
2019-02-16T18:12:29.115Z,98540.55
2019-02-16T18:15:15.140Z,98550.27
2019-02-16T18:18:01.098Z,98545.77
2019-02-16T18:20:47.015Z,98548.46
2019-02-16T18:23:36.912Z,98547.36
2019-02-16T18:26:11.624Z,98547.95
2019-02-16T18:28:58.717Z,98542.80
2019-02-16T18:31:48.633Z,98534.55
2019-02-16T18:34:44.903Z,98537.94
2019-02-16T18:37:30.749Z,98536.64
2019-02-16T18:40:15.123Z,98543.39
2019-02-16T18:43:02.586Z,98544.45
2019-02-16T18:46:07.766Z,98542.80
2019-02-16T18:49:01.014Z,98539.12
2019-02-16T18:51:39.076Z,98536.48
2019-02-16T18:54:30.941Z,98535.13
2019-02-16T18:57:11.832Z,98531.58
2019-02-16T19:00:03.035Z,98528.64
2019-02-16T19:02:57.709Z,98530.02
2019-02-16T19:05:56.843Z,98535.13
2019-02-16T19:08:36.498Z,98520.91
2019-02-16T19:11:26.579Z,98526.27
2019-02-16T19:14:11.169Z,98531.38
2019-02-16T19:17:07.613Z,98528.69
2019-02-16T19:19:53.504Z,98538.92
2019-02-16T19:22:56.344Z,98532.55
2019-02-16T19:25:46.724Z,98540.52
2019-02-16T19:28:27.421Z,98538.69
2019-02-16T19:31:06.054Z,98539.22
2019-02-16T19:33:51.214Z,98536.77
2019-02-16T19:36:38.767Z,98538.39
2019-02-16T19:39:16.364Z,98533.84
2019-02-16T19:42:03.633Z,98528.69
2019-02-16T19:44:49.154Z,98535.02
2019-02-16T19:47:45.501Z,98533.62
2019-02-16T19:50:32.658Z,98467.66
2019-02-16T19:53:10.651Z,98522.66
2019-02-16T19:56:03.556Z,98524.01
2019-02-16T19:58:52.915Z,98519.67
2019-02-16T20:01:42.808Z,98527.70
2019-02-16T20:04:29.976Z,98523.66
2019-02-16T20:07:17.104Z,98529.63
2019-02-16T20:10:03.087Z,98534.72
2019-02-16T20:12:59.027Z,98531.03
2019-02-16T20:15:48.716Z,98526.70
2019-02-16T20:18:27.276Z,98529.63
2019-02-16T20:21:18.243Z,98528.53
2019-02-16T20:24:05.632Z,98532.56
2019-02-16T20:26:52.790Z,98533.78
2019-02-16T20:29:46.129Z,98536.47
2019-02-16T20:32:36.060Z,98529.73
2019-02-16T20:35:18.077Z,98530.28
2019-02-16T20:38:06.111Z,98523.84
2019-02-16T20:40:53.294Z,98530.58
2019-02-16T20:43:39.784Z,98526.23
2019-02-16T20:46:32.991Z,98518.22
2019-02-16T20:49:24.278Z,98518.81
2019-02-16T20:52:10.326Z,98510.97
2019-02-16T20:55:03.470Z,98514.66
2019-02-16T20:58:02.626Z,98519.59
2019-02-16T21:01:08.423Z,98514.48
2019-02-16T21:04:02.234Z,98518.46
2019-02-16T21:06:40.730Z,98528.47
2019-02-16T21:09:34.321Z,98524.73
2019-02-16T21:12:24.330Z,98519.64
2019-02-16T21:15:06.908Z,98522.84
2019-02-16T21:17:52.735Z,98526.38
2019-02-16T21:20:39.943Z,98524.51
2019-02-16T21:23:27.094Z,98517.48
2019-02-16T21:26:14.325Z,98523.67
2019-02-16T21:29:04.442Z,98517.54
2019-02-16T21:31:54.238Z,98518.08
2019-02-16T21:34:37.308Z,98516.48
2019-02-16T21:37:21.562Z,98514.09
2019-02-16T21:39:57.462Z,98512.75
2019-02-16T21:42:31.704Z,98512.20
2019-02-16T21:45:21.555Z,98516.54
2019-02-16T21:48:05.246Z,98515.66
2019-02-16T21:50:51.124Z,98514.26
2019-02-16T21:53:29.354Z,98520.81
2019-02-16T21:56:13.735Z,98524.78
2019-02-16T21:59:08.113Z,98517.59
2019-02-16T22:02:01.276Z,98510.94
2019-02-16T22:04:47.296Z,98516.84
2019-02-16T22:07:26.484Z,98513.39
2019-02-16T22:10:13.578Z,98511.47
2019-02-16T22:12:50.762Z,98511.16
2019-02-16T22:15:18.898Z,98512.34
2019-02-16T22:17:47.076Z,98508.84
2019-02-16T22:20:15.273Z,98504.38
2019-02-16T22:22:43.414Z,98504.30
2019-02-16T22:25:30.737Z,98508.17
2019-02-16T22:27:58.948Z,98500.41
2019-02-16T22:30:27.102Z,98491.86
2019-02-16T22:33:14.366Z,98490.97
2019-02-16T22:35:42.545Z,98489.70
2019-02-16T22:38:10.695Z,98493.91
2019-02-16T22:40:38.920Z,98494.79
2019-02-16T22:43:07.109Z,98495.33
2019-02-16T22:45:35.265Z,98492.31
2019-02-16T22:48:03.426Z,98503.97
2019-02-16T22:50:52.033Z,98495.25
2019-02-16T22:53:20.284Z,98498.02
2019-02-16T22:55:48.433Z,98494.79
2019-02-16T22:58:16.635Z,98493.74
2019-02-16T23:00:45.998Z,98498.02
2019-02-16T23:03:14.314Z,98485.42
2019-02-16T23:05:42.439Z,98494.38
2019-02-16T23:08:10.632Z,98506.14
2019-02-16T23:10:38.772Z,98496.80
2019-02-16T23:13:06.916Z,98501.00
2019-02-16T23:15:35.094Z,98503.23
2019-02-16T23:18:03.375Z,98499.25
2019-02-16T23:20:31.523Z,98499.71
2019-02-16T23:22:59.692Z,98498.95
2019-02-16T23:25:27.881Z,98489.65
2019-02-16T23:27:56.032Z,98493.57
2019-02-16T23:30:43.318Z,98494.28
2019-02-16T23:33:11.448Z,98499.17
2019-02-16T23:35:39.601Z,98496.27
2019-02-16T23:40:41.345Z,98494.11
2019-02-16T23:43:09.537Z,98500.89
2019-02-16T23:45:37.718Z,98500.89
2019-02-16T23:48:05.896Z,98501.70
2019-02-16T23:50:34.089Z,98494.41
2019-02-16T23:53:02.245Z,98491.23
2019-02-16T23:55:30.394Z,98493.97
2019-02-16T23:57:58.617Z,98490.98
